Weather observations for the past three days for
Paynesville, Paynesville Municipal Airport
Metric (Imperial)
Date Time (cdt) Wind (kph) Vis. (km) Weather Sky Cond. Temperature (ºC) Relative Humidity Wind Chill (°C) Heat Index (°C) Pressure Precipitation (cm)
Air Dwpt 6 hour altimeter (cm) sea level (mb) 1 hr 3 hr 6 hr
Max. Min.
09 16:55 NW 31 G 46 16.09 Fair CLR 14 -4 29% 75.92 0.0
09 16:35 NW 24 G 39 16.09 Fair CLR 14 -4 29% 75.92 0.0
09 16:16 N 24 G 46 16.09 Fair CLR 14 -4 29% 75.9 0.0
09 15:55 N 28 G 44 16.09 Fair CLR 14 -4 29% 75.9 0.0
09 15:35 NW 30 G 41 16.09 Fair CLR 14 -5 27% 75.9 0.0
09 15:15 NW 28 G 43 16.09 Fair CLR 14 -4 29% 75.9 0.0
09 14:55 N 24 G 41 16.09 Fair CLR 14 -4 29% 75.87 0.0
09 14:35 N 24 G 37 16.09 Fair CLR 14 -4 29% 75.87 0.0
09 14:15 NW 26 G 44 16.09 Fair CLR 14 -4 29% 75.84 0.0
09 13:56 N 22 G 37 16.09 Fair CLR 13 -3 33% 75.84 0.0
09 13:35 NW 24 G 39 16.09 Fair CLR 13 -3 33% 75.82 0.0
09 13:15 NW 26 G 41 16.09 Fair CLR 13 -3 33% 75.82 0.0
09 12:55 N 22 G 33 16.09 Fair CLR 13 -3 33% 75.79 0.0
09 12:35 NW 26 G 39 16.09 Fair CLR 12 -4 33% 75.79 0.0
09 12:15 N 28 G 41 16.09 Fair CLR 12 -3 35% 75.79 0.0
09 11:55 N 24 G 41 16.09 Fair CLR 12 -4 33% 75.79 0.0
09 11:36 N 24 G 37 16.09 Fair CLR 12 -2 38% 75.77 0.0
09 11:15 NW 22 G 39 16.09 Fair CLR 11 -2 41% 75.74 0.0
09 10:55 NW 28 G 37 16.09 Fair CLR 11 -1 44% 75.74 0.0
09 10:35 N 28 G 37 16.09 Fair CLR 11 -2 41% 75.72 0.0
09 10:15 NW 26 G 37 16.09 Fair CLR 11 -1 44% 75.69 0.0
09 09:55 N 20 G 31 16.09 Fair CLR 11 0 47% 75.67 0.0
09 09:35 N 24 G 37 16.09 Fair CLR 10 0 50% 7 75.67 0.0
09 09:16 N 17 G 30 16.09 Fair CLR 10 1 54% 8 75.64 0.0
09 08:55 NW 24 G 31 16.09 Fair CLR 9 2 62% 6 75.62 0.0
09 08:35 N 17 G 31 16.09 Fair CLR 9 3 66% 7 75.62 0.0
09 08:15 N 20 G 33 16.09 Fair CLR 8 3 71% 5 75.59 0.0
09 07:55 NW 19 16.09 Fair CLR 8 4 76% 5 75.57 0.0
09 07:35 NW 19 16.09 Fair CLR 8 5 82% 5 75.54 0.0
09 07:15 NW 13 16.09 Fair CLR 7 5 87% 5 75.51 0.0
09 06:56 N 9 16.09 Partly Cloudy SCT015 7 5 87% 5 75.49 0.0
09 06:35 N 15 G 26 16.09 Mostly Cloudy BKN015 7 5 87% 5 75.46 0.0
09 06:15 NW 17 16.09 Overcast OVC013 7 5 87% 4 75.41 0.0
09 05:55 NW 19 G 30 16.09 Partly Cloudy SCT015 8 6 87% 5 75.39 0.0
09 05:35 NW 22 G 37 16.09 Mostly Cloudy BKN019 9 6 82% 6 75.36 0.0
09 05:15 NW 19 G 28 16.09 Mostly Cloudy SCT021 SCT060 BKN070 9 7 87% 7 75.34 0.0
09 04:55 W 15 16.09 Mostly Cloudy BKN060 BKN070 9 7 87% 7 75.29 0.0
09 04:36 W 13 16.09 Overcast SCT048 OVC060 9 7 87% 7 75.29 0.0
09 04:15 W 7 16.09 Light Rain SCT040 BKN060 OVC075 9 7 87% 8 75.29 0.0
09 03:55 W 7 16.09 Mostly Cloudy SCT050 BKN060 BKN095 9 7 87% 8 75.26 0.0
09 03:35 SW 6 11.27 Light Rain SCT039 SCT047 BKN060 9 7 87% 75.26 0.0
09 03:15 N 7 16.09 Light Rain OVC060 9 6 82% 8 75.31 0.0
09 02:55 N 11 16.09 Rain BKN060 BKN070 OVC090 10 6 76% 9 75.31 0.0
09 02:35 N 15 G 26 16.09 Overcast OVC090 10 6 76% 8 75.31 0.0
09 02:16 N 11 16.09 Mostly Cloudy BKN100 11 5 67% 75.29 0.0
09 01:55 N 13 G 28 16.09 Partly Cloudy SCT100 11 3 58% 75.26 0.0
09 01:35 NW 11 16.09 Overcast SCT090 OVC100 12 1 47% 75.29 0.0
09 01:15 NW 15 16.09 Overcast OVC090 9 1 58% 7 75.31 0.0
09 00:55 NW 6 16.09 Overcast OVC090 8 1 62% 75.23 0.0
09 00:35 W 6 16.09 Mostly Cloudy BKN100 8 0 57% 75.23 0.0
09 00:15 Calm 16.09 Fair CLR 8 -1 53% 75.21 0.0
08 23:56 S 6 16.09 Fair CLR 8 -1 53% 75.21 0.0
08 23:35 S 6 16.09 Fair CLR 6 -1 61% 75.23 0.0
08 23:15 SW 6 16.09 Fair CLR 7 -1 57% 75.26 0.0
08 22:55 Calm 16.09 Fair CLR 7 -2 53% 75.29 0.0
08 22:35 Calm 16.09 Fair CLR 7 -2 53% 75.31 0.0
08 22:15 Calm 16.09 Fair CLR 8 -3 46% 75.31 0.0
08 21:55 Calm 16.09 Fair CLR 11 -2 41% 75.31 0.0
08 21:36 W 6 16.09 Fair CLR 11 -3 38% 75.31 0.0
08 21:15 NW 6 16.09 Fair CLR 13 -3 33% 75.31 0.0
08 20:55 NW 7 16.09 Fair CLR 14 -3 31% 75.31 0.0
08 20:35 NW 13 16.09 Fair CLR 15 -2 31% 75.31 0.0
08 20:15 NW 19 G 28 16.09 Fair CLR 16 -2 29% 75.29 0.0
08 19:55 NW 17 G 35 16.09 Fair CLR 17 -2 27% 75.26 0.0
08 19:35 NW 26 G 43 16.09 Fair CLR 18 -3 24% 75.26 0.0
08 19:16 NW 26 G 41 16.09 Fair CLR 19 -3 22% 75.23 0.0
08 18:55 NW 33 G 44 16.09 Fair and Breezy CLR 19 -2 24% 75.23 0.0
08 18:35 NW 28 G 46 16.09 Fair CLR 20 -2 23% 75.21 0.0
08 18:15 NW 26 G 44 16.09 Partly Cloudy SCT100 20 -2 23% 75.21 0.0
08 17:55 NW 30 G 44 16.09 Partly Cloudy SCT100 21 -3 20% 75.18 0.0
08 17:35 NW 33 G 48 16.09 Partly Cloudy and Breezy SCT100 21 -4 18% 75.18 0.0
08 17:15 NW 31 G 44 16.09 Partly Cloudy SCT100 21 -4 18% 75.18 0.0
08 16:56 W 39 G 46 16.09 Fair and Breezy CLR 21 -4 18% 75.18 0.0
08 16:35 W 31 G 46 16.09 Partly Cloudy SCT100 21 -4 18% 75.18 0.0
08 16:15 W 33 G 41 16.09 Partly Cloudy and Breezy SCT100 21 -3 20% 75.18 0.0
08 15:55 W 31 G 46 16.09 Partly Cloudy SCT100 22 -3 19% 75.21 0.0
08 15:35 W 30 G 48 16.09 Partly Cloudy SCT100 22 -2 20% 75.23 0.0
08 15:15 W 26 G 33 16.09 Partly Cloudy SCT100 20 -3 21% 75.26 0.0
08 14:55 W 17 G 33 16.09 Partly Cloudy SCT100 21 -3 20% 75.26 0.0
08 14:36 NW 11 16.09 Partly Cloudy SCT100 20 -3 21% 75.29 0.0
08 14:15 W 13 G 26 16.09 Mostly Cloudy BKN100 20 -3 21% 75.31 0.0
08 13:55 W 19 G 31 16.09 Mostly Cloudy BKN090 19 -4 21% 75.34 0.0
08 13:35 W 13 G 33 16.09 Partly Cloudy SCT090 20 -4 20% 75.34 0.0
08 13:15 W 15 G 30 16.09 Overcast BKN090 OVC110 19 -5 19% 75.39 0.0
08 12:55 NW 20 16.09 Mostly Cloudy BKN100 19 -4 21% 75.39 0.0
08 12:35 W 24 16.09 Partly Cloudy SCT110 18 -5 21% 75.41 0.0
08 12:16 W 26 16.09 Partly Cloudy SCT100 SCT120 19 -4 21% 75.44 0.0
08 11:55 W 15 16.09 Partly Cloudy SCT120 18 -5 21% 75.44 0.0
08 11:35 NW 13 G 31 16.09 Partly Cloudy SCT120 18 -5 21% 75.46 0.0
08 11:15 NW 11 16.09 Fair CLR 18 -4 22% 75.49 0.0
08 10:55 NW 17 16.09 Fair CLR 17 -5 22% 75.49 0.0
08 10:35 W 19 16.09 Fair CLR 16 -5 23% 75.51 0.0
08 10:15 W 15 16.09 Fair CLR 16 -3 27% 75.54 0.0
08 09:56 W 17 16.09 Partly Cloudy SCT090 14 -3 31% 75.54 0.0
08 09:35 W 17 16.09 Overcast OVC090 13 -2 36% 75.57 0.0
08 09:15 W 17 16.09 Overcast OVC090 11 -2 41% 75.57 0.0
08 08:55 SW 17 16.09 Overcast OVC090 10 -3 40% 8 75.57 0.0
08 08:35 SW 15 16.09 Overcast BKN090 OVC120 10 -3 40% 8 75.57 0.0
08 08:15 SW 13 16.09 Mostly Cloudy BKN100 BKN120 9 -2 46% 7 75.57 0.0
08 07:55 W 15 16.09 Mostly Cloudy BKN100 8 -2 50% 6 75.59 0.0
08 07:36 SW 15 16.09 Overcast OVC100 7 -1 57% 5 75.59 0.0
08 07:15 SW 9 16.09 Overcast OVC100 4 -1 70% 2 75.59 0.0
08 06:55 Calm 16.09 Overcast OVC100 2 -1 81% 75.59 0.0
08 06:35 Calm 16.09 Mostly Cloudy BKN100 1 -2 81% 75.59 0.0
08 06:15 Calm 16.09 Partly Cloudy SCT100 0 -2 87% 75.59 0.0
08 05:55 Calm 16.09 Fair CLR 0 -2 87% 75.57 0.0
08 05:35 Calm 16.09 Fair CLR 1 -2 81% 75.57 0.0
08 05:16 Calm 16.09 Fair CLR 1 -2 81% 75.59 0.0
08 04:55 Calm 16.09 Fair CLR 1 -1 87% 75.59 0.0
08 04:35 Calm 16.09 Fair CLR 0 -2 87% 75.59 0.0
08 04:15 W 6 16.09 Fair CLR 0 -2 87% 75.59 0.0
08 03:55 W 6 16.09 Fair CLR 0 -2 87% 75.62 0.0
08 03:35 W 6 16.09 Fair CLR 1 -2 81% 75.62 0.0
08 03:15 W 6 16.09 Fair CLR 0 -2 87% 75.62 0.0
08 02:56 W 6 16.09 Fair CLR 1 -2 81% 75.62 0.0
08 02:35 Calm 16.09 Fair CLR 1 -2 81% 75.62 0.0
08 02:15 Calm 16.09 Fair CLR 1 -2 81% 75.62 0.0
08 01:55 Calm 16.09 Fair CLR 1 -2 81% 75.62 0.0
08 01:35 Calm 16.09 Fair CLR 1 -3 75% 75.64 0.0
08 01:15 Calm 16.09 Fair CLR 2 -3 70% 75.64 0.0
08 00:55 Calm 16.09 Fair CLR 2 -2 75% 75.64 0.0
08 00:35 Calm 16.09 Fair CLR 2 -2 75% 75.67 0.0
08 00:15 Calm 16.09 Fair CLR 3 -3 65% 75.67 0.0
07 23:55 Calm 11.27 Fair CLR 3 -2 70% 75.67 0.0
07 23:35 Calm 11.27 Fair CLR 4 -3 61% 75.69 0.0
07 23:15 Calm 16.09 Fair CLR 4 -2 65% 75.69 0.0
07 22:55 Calm 16.09 Fair CLR 4 -4 56% 75.72 0.0
07 22:35 Calm 16.09 Fair CLR 5 -4 53% 75.72 0.0
07 22:16 Calm 16.09 Fair CLR 6 -4 49% 75.72 0.0
07 21:55 Calm 16.09 Fair CLR 7 -4 46% 75.72 0.0
07 21:35 Calm 16.09 Fair CLR 7 -4 46% 75.72 0.0
07 21:15 Calm 16.09 Fair CLR 8 -5 40% 75.69 0.0
07 20:55 Calm 16.09 Fair CLR 9 -5 37% 75.69 0.0
07 20:35 W 6 16.09 Fair CLR 10 -5 35% 75.69 0.0
07 20:15 W 9 16.09 Fair CLR 12 -5 30% 75.67 0.0
07 19:56 W 11 16.09 Fair CLR 13 -5 28% 75.67 0.0
07 19:35 NW 17 G 26 16.09 Fair CLR 14 -6 25% 75.67 0.0
07 19:15 W 20 G 39 16.09 Fair CLR 14 -6 25% 75.67 0.0
07 18:55 NW 17 16.09 Fair CLR 14 -6 25% 75.67 0.0
07 18:35 W 20 16.09 Fair CLR 14 -6 25% 75.69 0.0
07 18:15 W 22 16.09 Partly Cloudy SCT080 15 -7 21% 75.69 0.0
07 17:55 NW 19 16.09 Partly Cloudy SCT080 15 -6 23% 75.69 0.0
07 17:35 W 22 G 37 16.09 Partly Cloudy SCT080 15 -6 23% 75.72 0.0
07 17:15 W 20 G 33 16.09 Partly Cloudy SCT080 15 -6 23% 75.72 0.0
07 16:55 W 17 G 26 16.09 Partly Cloudy SCT080 15 -7 21% 75.72 0.0
07 16:35 W 24 G 33 16.09 Partly Cloudy SCT080 15 -6 23% 75.74 0.0
07 16:15 W 17 16.09 Partly Cloudy SCT080 14 -6 25% 75.74 0.0
07 15:55 W 19 G 30 16.09 Mostly Cloudy BKN080 15 -6 23% 75.74 0.0
07 15:35 W 19 G 33 16.09 Partly Cloudy SCT080 14 -6 25% 75.77 0.0
07 15:16 SW 17 G 28 16.09 Partly Cloudy SCT080 14 -6 25% 75.79 0.0
07 14:55 W 20 G 28 16.09 Partly Cloudy SCT080 14 -7 23% 75.79 0.0
07 14:35 W 20 G 31 16.09 Partly Cloudy SCT080 14 -7 23% 75.82 0.0
07 14:15 W 22 G 31 16.09 Partly Cloudy SCT080 12 -7 26% 75.82 0.0
07 13:55 W 24 G 30 16.09 Partly Cloudy SCT080 13 -7 24% 75.82 0.0
07 13:35 NW 15 16.09 Partly Cloudy SCT080 12 -7 26% 75.84 0.0
07 13:15 NW 13 G 28 16.09 Fair CLR 12 -8 24% 75.87 0.0
07 12:56 W 22 G 31 16.09 Partly Cloudy SCT075 12 -8 24% 75.9 0.0
07 12:35 N 11 G 28 16.09 Fair CLR 11 -8 26% 75.9 0.0
07 12:16 N 7 16.09 Fair CLR 11 -8 26% 75.92 0.0
07 11:55 NW 6 16.09 Partly Cloudy SCT070 11 -8 26% 75.92 0.0
07 11:35 W 6 16.09 Partly Cloudy SCT070 10 -7 30% 75.92 0.0
07 11:15 W 7 16.09 Partly Cloudy SCT070 10 -8 28% 9 75.95 0.0
07 10:55 W 9 16.09 Fair CLR 10 -8 28% 9 75.97 0.0
07 10:35 S 7 16.09 Fair CLR 9 -7 32% 8 75.97 0.0
07 10:15 W 11 16.09 Fair CLR 9 -8 29% 8 75.97 0.0
07 09:55 S 6 16.09 Fair CLR 8 -6 37% 75.97 0.0
07 09:35 SW 9 16.09 Fair CLR 8 -5 40% 7 75.97 0.0
07 09:15 S 7 16.09 Fair CLR 7 -4 46% 6 75.97 0.0
07 08:55 S 6 16.09 Fair CLR 6 -4 49% 75.97 0.0
07 08:35 SW 7 16.09 Fair CLR 6 -4 49% 5 75.97 0.0
07 08:16 SW 6 16.09 Fair CLR 5 -3 57% 75.97 0.0
07 07:55 Calm 16.09 Fair CLR 2 -2 75% 75.97 0.0
07 07:35 Calm 16.09 Fair CLR 0 -2 87% 75.97 0.0
07 07:15 Calm 16.09 Fair CLR -2 -3 93% 75.97 0.0
07 06:55 Calm 16.09 Fair CLR -3 -4 93% 75.97 0.0
07 06:35 Calm 16.09 Fair CLR -4 -5 93% 75.97 0.0
07 06:15 Calm 16.09 Fair CLR -4 -5 93% 75.97 0.0
07 05:56 Calm 16.09 Fair CLR -4 -5 93% 75.97 0.0
07 05:35 Calm 16.09 Fair CLR -4 -5 93% 75.97 0.0
07 05:15 Calm 16.09 Fair CLR -4 -5 93% 75.97 0.0
07 04:55 Calm 16.09 Fair CLR -4 -5 93% 76 0.0
07 04:35 Calm 16.09 Fair CLR -4 -5 93% 76 0.0
07 04:15 Calm 16.09 Fair CLR -4 -5 93% 76 0.0
07 03:55 Calm 16.09 Fair CLR -4 -5 93% 76 0.0
07 03:36 Calm 16.09 Fair CLR -4 -5 93% 76 0.0
07 03:15 Calm 16.09 Fair CLR -4 -5 93% 76 0.0
07 02:55 Calm 16.09 Fair CLR -4 -5 93% 76 0.0
07 02:35 Calm 16.09 Fair CLR -3 -4 93% 76.02 0.0
07 02:15 Calm 16.09 Fair CLR -3 -5 86% 76.02 0.0
07 01:55 Calm 16.09 Fair CLR -3 -4 93% 76.05 0.0
07 01:35 W 6 16.09 Fair CLR -4 -6 86% 76.05 0.0
07 01:16 Calm 16.09 Fair CLR -3 -5 86% 76.05 0.0
07 00:55 Calm 16.09 Fair CLR -2 -5 80% 76.07 0.0
07 00:35 W 6 16.09 Fair CLR -2 -4 86% 76.07 0.0
07 00:15 Calm 16.09 Fair CLR -2 -5 80% 76.1 0.0
06 23:55 Calm 16.09 Fair CLR -1 -5 75% 76.1 0.0
06 23:35 Calm 16.09 Fair CLR -1 -5 75% 76.12 0.0
06 23:15 Calm 16.09 Fair CLR 0 -4 75% 76.12 0.0
06 22:56 Calm 16.09 Fair CLR 1 -4 70% 76.12 0.0
06 22:35 Calm 16.09 Partly Cloudy SCT070 2 -4 65% 76.12 0.0
06 22:15 Calm 16.09 Overcast OVC070 3 -4 60% 76.12 0.0
06 21:55 Calm 16.09 Overcast OVC070 3 -4 60% 76.12 0.0
06 21:35 Calm 16.09 Overcast OVC070 4 -4 56% 76.12 0.0
06 21:15 Calm 16.09 Overcast OVC070 4 -5 52% 76.12 0.0
06 20:55 Calm 16.09 Overcast OVC070 4 -5 52% 76.12 0.0
06 20:36 NW 6 16.09 Overcast OVC070 5 -5 49% 76.12 0.0
06 20:15 NW 6 16.09 Overcast OVC070 5 -5 49% 76.12 0.0
06 19:55 NW 6 16.09 Overcast OVC060 5 -5 49% 76.12 0.0
06 19:35 NW 9 16.09 Overcast OVC060 6 -5 46% 4 76.12 0.0
06 19:15 NW 13 16.09 Overcast OVC060 6 -5 46% 4 76.12 0.0
06 18:55 W 15 16.09 Overcast OVC060 6 -5 46% 3 76.17 0.0
06 18:35 NW 17 16.09 Overcast OVC060 6 -5 46% 3 76.17 0.0
06 18:16 W 17 16.09 Overcast OVC060 6 -5 46% 3 76.17 0.0
06 17:55 NW 19 16.09 Overcast OVC050 6 -5 46% 3 76.2 0.0
06 17:35 W 20 16.09 Overcast OVC050 6 -5 46% 3 76.2 0.0
06 17:15 NW 17 16.09 Overcast OVC050 6 -6 42% 3 76.2 0.0
Date Time (cdt) Wind (kph) Vis. (km) Weather Sky Cond. Air Dwpt Max. Min. Relative Humidity Wind Chill (°C) Heat Index (°C) altimeter (cm) sea level (mb) 1 hr 3 hr 6 hr
6 hour
Temperature (ºC) Pressure Precipitation (cm)